Time;durP1;ratioP1;P1;durP2;ratioP2;P2;SDS_P1;SDS_P2;PMS_P1;PMS_P2;Temp;Humidity;BMP_temperature;BMP_pressure;BME280_temperature;BME280_humidity;BME280_pressure;Samples;Min_cycle;Max_cycle;Signal;HPM_P1;HPM_P2
2023/08/13 00:00:59;;;;;;;10.82;5.70;;;;;;;16.80;84.01;100557.53;10169628;29;20099;-81
2023/08/13 00:06:02;;;;;;;14.02;7.05;;;;;;;16.84;84.03;100557.19;10183867;29;20047;-81
2023/08/13 00:11:09;;;;;;;14.30;6.95;;;;;;;16.75;84.55;100561.72;10182477;29;20043;-80
2023/08/13 00:16:13;;;;;;;14.27;8.50;;;;;;;16.69;85.42;100555.09;10179326;29;20044;-81
2023/08/13 00:21:16;;;;;;;12.65;8.23;;;;;;;16.73;85.06;100555.59;10184365;29;20374;-80
2023/08/13 00:26:18;;;;;;;16.25;9.13;;;;;;;16.69;85.25;100557.78;10178510;29;20044;-79
2023/08/13 00:31:22;;;;;;;10.02;8.60;;;;;;;16.71;85.25;100557.66;10173010;29;20045;-80
2023/08/13 00:36:25;;;;;;;17.50;10.00;;;;;;;16.64;85.67;100556.56;10183155;29;20110;-80
2023/08/13 00:41:28;;;;;;;12.43;8.65;;;;;;;16.56;85.83;100565.50;10167828;29;20826;-81
2023/08/13 00:46:33;;;;;;;14.30;9.32;;;;;;;16.58;85.69;100563.50;10179562;29;20048;-79
2023/08/13 00:51:37;;;;;;;20.48;10.88;;;;;;;16.63;85.17;100561.16;10170161;29;20103;-80
2023/08/13 00:56:43;;;;;;;15.20;10.40;;;;;;;16.70;85.28;100564.06;10175321;29;20099;-80
2023/08/13 01:01:47;;;;;;;15.85;11.48;;;;;;;16.72;85.26;100560.19;10173803;29;20042;-80
2023/08/13 01:07:02;;;;;;;14.00;10.50;;;;;;;16.56;85.52;100568.22;10170239;29;20063;-80
2023/08/13 01:12:15;;;;;;;17.88;11.15;;;;;;;16.51;85.50;100566.00;10166072;29;20130;-80
2023/08/13 01:17:23;;;;;;;14.93;9.90;;;;;;;16.61;84.85;100573.16;10174629;29;20052;-79
2023/08/13 01:22:28;;;;;;;14.88;10.70;;;;;;;16.63;84.91;100582.00;10173499;29;20049;-80
2023/08/13 01:27:39;;;;;;;16.40;10.73;;;;;;;16.71;84.54;100579.34;10166303;29;20462;-80
2023/08/13 01:32:52;;;;;;;15.80;10.45;;;;;;;16.69;84.49;100584.91;10166146;29;20067;-79
2023/08/13 01:37:59;;;;;;;15.82;10.95;;;;;;;16.69;84.35;100581.34;10197169;29;20048;-81
2023/08/13 01:43:02;;;;;;;14.52;10.27;;;;;;;16.69;84.04;100587.63;10166749;29;20056;-80
2023/08/13 01:48:06;;;;;;;16.73;9.98;;;;;;;16.73;83.87;100590.88;10175012;29;20055;-80
2023/08/13 01:53:10;;;;;;;17.55;10.55;;;;;;;16.76;83.80;100594.13;10169603;29;20075;-80
2023/08/13 01:58:13;;;;;;;15.90;10.25;;;;;;;16.71;83.79;100601.88;10171011;29;20036;-80
2023/08/13 02:03:16;;;;;;;10.55;9.02;;;;;;;16.76;83.66;100604.13;10167324;29;20079;-80
2023/08/13 02:08:20;;;;;;;17.20;10.07;;;;;;;16.77;83.40;100597.69;10174732;29;20052;-78
2023/08/13 02:13:23;;;;;;;14.02;10.18;;;;;;;16.71;83.25;100593.75;10177000;29;20142;-79
2023/08/13 02:18:25;;;;;;;12.40;10.07;;;;;;;16.72;83.02;100591.88;10169268;29;20457;-79
2023/08/13 02:23:30;;;;;;;15.15;10.65;;;;;;;16.76;83.04;100594.13;10176964;29;20823;-78
2023/08/13 02:28:32;;;;;;;13.05;9.93;;;;;;;16.63;83.32;100598.28;10177339;29;20048;-79
2023/08/13 02:33:35;;;;;;;15.80;9.77;;;;;;;16.40;84.19;100597.91;10174722;29;20076;-79
2023/08/13 02:38:39;;;;;;;12.07;8.05;;;;;;;16.47;83.92;100601.72;10169785;29;20427;-80
2023/08/13 02:43:53;;;;;;;17.05;8.25;;;;;;;16.53;82.97;100603.78;10172155;29;20048;-78
2023/08/13 02:48:56;;;;;;;11.80;8.82;;;;;;;16.48;82.92;100603.41;10165703;29;20115;-78
2023/08/13 02:54:02;;;;;;;18.27;8.45;;;;;;;16.38;82.60;100599.94;10191221;29;20048;-80
2023/08/13 02:59:05;;;;;;;14.82;8.50;;;;;;;16.30;83.55;100603.44;10191133;29;20453;-80
2023/08/13 03:04:08;;;;;;;17.65;8.95;;;;;;;16.22;83.63;100595.22;10167422;29;20135;-79
2023/08/13 03:09:20;;;;;;;14.57;8.25;;;;;;;16.10;83.64;100600.03;10160625;29;20059;-79
2023/08/13 03:14:23;;;;;;;18.83;9.15;;;;;;;16.11;83.36;100599.84;10172060;29;20086;-78
2023/08/13 03:19:27;;;;;;;17.20;8.43;;;;;;;15.99;83.93;100609.22;10163843;29;20044;-79
2023/08/13 03:24:31;;;;;;;16.88;8.63;;;;;;;16.07;83.31;100609.31;10176144;29;20058;-79
2023/08/13 03:29:34;;;;;;;18.60;9.45;;;;;;;16.05;83.22;100605.06;10172404;29;20135;-79
2023/08/13 03:34:38;;;;;;;15.38;8.55;;;;;;;15.93;83.16;100608.00;10172031;29;20125;-78
2023/08/13 03:39:43;;;;;;;14.18;8.10;;;;;;;15.96;83.09;100606.81;10168007;29;20044;-78
2023/08/13 03:44:46;;;;;;;12.85;8.70;;;;;;;16.04;82.80;100606.03;10186506;29;20044;-79
2023/08/13 03:49:49;;;;;;;11.43;8.50;;;;;;;15.99;82.88;100620.06;10174487;29;20414;-79
2023/08/13 03:54:54;;;;;;;16.83;8.18;;;;;;;15.97;82.92;100623.94;10170826;29;20135;-78
2023/08/13 03:59:57;;;;;;;17.65;9.70;;;;;;;15.88;83.02;100623.84;10175971;29;20091;-79
2023/08/13 04:05:01;;;;;;;16.58;8.93;;;;;;;15.87;82.86;100630.25;10173225;29;20048;-79
2023/08/13 04:10:06;;;;;;;14.48;7.95;;;;;;;15.91;82.44;100620.84;10176792;29;20172;-79
2023/08/13 04:15:09;;;;;;;12.13;9.15;;;;;;;15.89;82.27;100624.69;10170906;29;20048;-77
2023/08/13 04:20:15;;;;;;;13.40;8.65;;;;;;;15.84;82.22;100635.13;10175406;29;20092;-79
2023/08/13 04:25:19;;;;;;;13.32;8.23;;;;;;;15.81;82.38;100635.44;10174577;29;20053;-79
2023/08/13 04:30:23;;;;;;;16.35;9.23;;;;;;;15.76;82.16;100626.91;10173337;29;20096;-79
2023/08/13 04:35:27;;;;;;;15.70;8.23;;;;;;;15.77;81.78;100625.91;10174509;29;20052;-78
2023/08/13 04:40:31;;;;;;;13.60;7.40;;;;;;;15.78;81.18;100622.22;10171180;29;20040;-79
2023/08/13 04:45:35;;;;;;;13.52;7.82;;;;;;;15.86;81.37;100620.44;10175840;29;20444;-79
2023/08/13 04:50:37;;;;;;;13.98;6.97;;;;;;;15.89;81.01;100622.84;10175300;29;20103;-79
2023/08/13 04:55:42;;;;;;;14.02;8.07;;;;;;;15.98;80.91;100628.34;10174359;29;20064;-78
2023/08/13 05:00:45;;;;;;;14.65;8.85;;;;;;;16.01;81.02;100626.16;10166340;29;20055;-80
2023/08/13 05:05:48;;;;;;;13.95;8.65;;;;;;;16.04;81.33;100622.28;10171970;29;20445;-78
2023/08/13 05:10:53;;;;;;;16.25;8.30;;;;;;;16.01;81.03;100623.44;10166756;29;20092;-78
2023/08/13 05:15:55;;;;;;;17.90;9.32;;;;;;;16.11;81.26;100628.81;10172685;29;20044;-78
2023/08/13 05:20:59;;;;;;;14.57;10.13;;;;;;;16.19;81.33;100633.47;10161318;29;20052;-77
2023/08/13 05:26:03;;;;;;;15.52;9.82;;;;;;;16.26;81.34;100634.56;10163917;29;20144;-79
2023/08/13 05:31:08;;;;;;;13.13;9.63;;;;;;;16.36;81.38;100632.63;10170606;29;20056;-79
2023/08/13 05:36:11;;;;;;;13.15;9.65;;;;;;;16.43;81.43;100635.56;10164788;29;20048;-78
2023/08/13 05:41:15;;;;;;;19.70;8.45;;;;;;;16.55;81.40;100637.88;10161139;29;20036;-79
2023/08/13 05:46:18;;;;;;;15.95;7.63;;;;;;;16.64;80.34;100627.09;10161247;29;20047;-78
2023/08/13 05:51:23;;;;;;;12.20;7.65;;;;;;;16.70;79.55;100632.75;10179448;29;20107;-78
2023/08/13 05:56:27;;;;;;;15.95;7.18;;;;;;;16.87;79.04;100628.28;10179768;29;20116;-79
2023/08/13 06:01:30;;;;;;;11.68;6.30;;;;;;;16.92;77.88;100635.91;10164296;29;20251;-78
2023/08/13 06:06:33;;;;;;;14.77;6.03;;;;;;;17.02;77.66;100629.38;10175377;29;20040;-79
2023/08/13 06:11:37;;;;;;;8.50;5.10;;;;;;;17.21;77.32;100633.75;10180792;29;20048;-79
2023/08/13 06:16:40;;;;;;;12.20;5.15;;;;;;;17.26;76.25;100630.56;10165068;29;20044;-79
2023/08/13 06:21:43;;;;;;;8.90;5.07;;;;;;;17.34;75.92;100633.31;10171826;29;20690;-79
2023/08/13 06:26:47;;;;;;;10.38;5.07;;;;;;;17.61;75.00;100636.84;10174055;29;20052;-78
2023/08/13 06:31:50;;;;;;;11.20;3.83;;;;;;;17.86;72.87;100635.03;10169711;29;20124;-79
2023/08/13 06:36:53;;;;;;;9.82;3.90;;;;;;;18.03;72.51;100642.22;10171338;29;20052;-79
2023/08/13 06:41:59;;;;;;;8.48;3.78;;;;;;;18.09;71.45;100644.28;10157539;29;20078;-77
2023/08/13 06:47:05;;;;;;;8.35;3.75;;;;;;;18.43;71.06;100643.31;10161995;29;20681;-79
2023/08/13 06:52:08;;;;;;;7.93;3.50;;;;;;;18.56;70.17;100643.63;10166879;29;20466;-78
2023/08/13 06:57:12;;;;;;;10.82;3.80;;;;;;;18.57;70.61;100647.22;10162914;29;20415;-79
2023/08/13 07:02:15;;;;;;;14.77;4.10;;;;;;;18.29;70.33;100644.84;10167065;29;20086;-78
2023/08/13 07:07:18;;;;;;;11.25;4.05;;;;;;;18.58;69.51;100641.59;10172675;29;20095;-78
2023/08/13 07:12:22;;;;;;;11.20;3.90;;;;;;;18.87;68.75;100647.53;10172857;29;20609;-79
2023/08/13 07:17:25;;;;;;;11.55;4.65;;;;;;;19.17;68.27;100662.28;10182468;29;20068;-79
2023/08/13 07:22:28;;;;;;;8.57;3.72;;;;;;;18.91;69.26;100660.66;10167213;29;20039;-79
2023/08/13 07:27:33;;;;;;;10.60;3.47;;;;;;;18.77;68.86;100659.44;10174264;29;20040;-79
2023/08/13 07:32:36;;;;;;;15.10;4.65;;;;;;;18.91;69.13;100662.53;10177412;29;20124;-78
2023/08/13 07:37:40;;;;;;;8.63;3.65;;;;;;;19.06;68.33;100652.66;10191601;29;20043;-79
2023/08/13 07:42:44;;;;;;;12.02;3.20;;;;;;;19.46;66.94;100661.69;10171454;29;20054;-79
2023/08/13 07:47:47;;;;;;;6.65;3.08;;;;;;;19.22;66.10;100659.91;10180756;29;20426;-78
2023/08/13 07:52:51;;;;;;;7.07;2.42;;;;;;;20.07;64.06;100660.06;10202068;29;20079;-78
2023/08/13 07:57:55;;;;;;;7.72;2.95;;;;;;;20.05;65.35;100662.13;10186499;29;20728;-79
2023/08/13 08:02:58;;;;;;;5.75;2.30;;;;;;;20.37;64.69;100653.94;10190244;29;20067;-79
2023/08/13 08:08:01;;;;;;;3.75;1.80;;;;;;;20.63;61.83;100654.41;10184878;29;20052;-79
2023/08/13 08:13:06;;;;;;;5.28;2.08;;;;;;;20.47;62.34;100646.34;10196804;29;20048;-78
2023/08/13 08:18:08;;;;;;;3.25;1.40;;;;;;;20.61;61.06;100644.69;10193858;29;20040;-78
2023/08/13 08:23:13;;;;;;;5.18;1.63;;;;;;;21.12;60.66;100644.94;10201399;29;20044;-79
2023/08/13 08:28:17;;;;;;;6.00;1.73;;;;;;;20.30;61.26;100649.19;10184842;29;20058;-78
2023/08/13 08:33:21;;;;;;;3.22;1.38;;;;;;;21.15;59.71;100631.72;10204504;29;20408;-79
2023/08/13 08:38:24;;;;;;;3.90;1.40;;;;;;;21.44;59.26;100632.75;10201807;29;20395;-79
2023/08/13 08:43:30;;;;;;;5.32;1.50;;;;;;;20.92;57.23;100645.41;10183084;29;20063;-78
2023/08/13 08:48:34;;;;;;;8.73;1.83;;;;;;;21.85;57.69;100637.72;10188679;29;20040;-78
2023/08/13 08:53:39;;;;;;;4.13;1.45;;;;;;;22.35;54.85;100641.38;10183875;29;20059;-78
2023/08/13 08:58:43;;;;;;;2.53;1.48;;;;;;;22.54;55.54;100638.06;10179039;29;20040;-79
2023/08/13 09:03:46;;;;;;;5.13;1.42;;;;;;;21.92;56.55;100637.81;10189399;29;20044;-79
2023/08/13 09:08:49;;;;;;;7.50;1.98;;;;;;;22.40;56.22;100630.69;10188947;29;20052;-79
2023/08/13 09:13:53;;;;;;;3.15;0.90;;;;;;;23.13;53.44;100627.78;10185689;29;20410;-78
2023/08/13 09:18:56;;;;;;;5.72;1.10;;;;;;;22.56;53.84;100635.09;10186022;29;20487;-78
2023/08/13 09:24:15;;;;;;;4.55;1.10;;;;;;;22.25;54.47;100630.78;10172703;29;20448;-78
2023/08/13 09:29:21;;;;;;;4.43;0.98;;;;;;;22.23;55.62;100624.66;10174218;29;20123;-78
2023/08/13 09:34:25;;;;;;;4.45;1.38;;;;;;;23.00;52.65;100631.22;10194565;29;20062;-78
2023/08/13 09:39:29;;;;;;;3.80;1.65;;;;;;;23.12;50.90;100621.44;10175616;29;20465;-78
2023/08/13 09:44:33;;;;;;;4.00;1.13;;;;;;;23.25;50.80;100628.03;10185362;29;20040;-77
2023/08/13 09:49:37;;;;;;;3.08;1.02;;;;;;;22.93;51.61;100611.19;10185240;29;20091;-78
2023/08/13 09:54:47;;;;;;;4.65;1.23;;;;;;;23.10;51.08;100603.47;10177918;29;20044;-78
2023/08/13 09:59:52;;;;;;;5.07;2.03;;;;;;;22.82;52.49;100620.78;10181151;29;20044;-78
2023/08/13 10:04:57;;;;;;;5.18;1.35;;;;;;;23.11;50.22;100603.28;10185122;29;20392;-78
2023/08/13 10:10:02;;;;;;;5.38;1.33;;;;;;;24.30;49.55;100585.59;10186165;29;20049;-78
2023/08/13 10:15:12;;;;;;;6.47;1.42;;;;;;;25.03;49.71;100588.31;10181013;29;20036;-78
2023/08/13 10:20:18;;;;;;;8.13;1.48;;;;;;;25.34;46.99;100590.38;10182592;29;20134;-78
2023/08/13 10:25:29;;;;;;;2.10;0.90;;;;;;;25.26;47.14;100585.09;10188773;29;20083;-78
2023/08/13 10:30:33;;;;;;;3.77;1.17;;;;;;;24.29;46.17;100581.97;10173437;29;20044;-77
2023/08/13 10:35:39;;;;;;;4.53;1.08;;;;;;;24.06;47.81;100589.78;10179029;29;20048;-79
2023/08/13 10:40:59;;;;;;;4.03;1.10;;;;;;;25.10;46.28;100574.59;10185807;29;20407;-78
2023/08/13 10:46:06;;;;;;;4.03;1.42;;;;;;;25.54;46.53;100579.28;10175229;29;20044;-78
2023/08/13 10:51:10;;;;;;;4.05;1.40;;;;;;;24.97;47.36;100570.75;10179911;29;20095;-77
2023/08/13 10:56:18;;;;;;;2.95;1.10;;;;;;;25.10;46.76;100569.94;10177672;29;20043;-78
2023/08/13 11:01:22;;;;;;;2.42;0.95;;;;;;;25.19;45.86;100565.88;10176625;29;20042;-77
2023/08/13 11:06:27;;;;;;;4.68;1.20;;;;;;;25.03;46.91;100555.34;10186993;29;20056;-78
2023/08/13 11:11:30;;;;;;;5.43;1.27;;;;;;;24.52;47.59;100558.81;10191096;29;20060;-78
2023/08/13 11:16:35;;;;;;;2.47;1.00;;;;;;;24.95;46.48;100552.81;10182735;29;20096;-78
2023/08/13 11:21:38;;;;;;;2.42;1.20;;;;;;;24.88;46.23;100552.84;10188045;29;20071;-78
2023/08/13 11:26:41;;;;;;;3.35;1.02;;;;;;;25.87;44.31;100564.53;10180711;29;20076;-78
2023/08/13 11:31:47;;;;;;;3.50;1.35;;;;;;;25.73;44.30;100561.00;10190075;29;20036;-78
2023/08/13 11:36:51;;;;;;;2.22;1.20;;;;;;;25.83;44.73;100550.34;10191238;29;20075;-78
2023/08/13 11:41:53;;;;;;;4.93;1.50;;;;;;;26.26;42.86;100544.16;10186213;29;20058;-78
2023/08/13 11:47:00;;;;;;;4.32;1.70;;;;;;;27.51;42.21;100542.22;10191424;29;20112;-78
2023/08/13 11:52:06;;;;;;;4.97;1.40;;;;;;;26.98;42.43;100534.59;10189694;29;20584;-78
2023/08/13 11:57:09;;;;;;;5.60;1.17;;;;;;;26.42;43.18;100536.41;10185564;29;20048;-78
2023/08/13 12:02:14;;;;;;;5.85;1.75;;;;;;;27.26;41.81;100523.00;10180591;29;20040;-78
2023/08/13 12:07:18;;;;;;;6.43;1.83;;;;;;;27.32;42.01;100533.13;10204010;29;20419;-79
2023/08/13 12:12:20;;;;;;;5.28;2.13;;;;;;;28.26;40.56;100517.75;10177855;29;20048;-78
2023/08/13 12:17:25;;;;;;;5.97;3.22;;;;;;;28.14;40.73;100524.31;10184726;29;20048;-78
2023/08/13 12:22:28;;;;;;;4.53;1.58;;;;;;;26.70;43.18;100522.97;10179360;29;20056;-79
2023/08/13 12:27:31;;;;;;;7.65;1.70;;;;;;;25.75;44.74;100534.09;10184215;29;20048;-78
2023/08/13 12:32:35;;;;;;;5.35;1.58;;;;;;;24.94;46.93;100530.00;10183547;29;20067;-78
2023/08/13 12:37:38;;;;;;;5.50;1.60;;;;;;;24.94;47.18;100529.16;10189935;29;20076;-78
2023/08/13 12:42:41;;;;;;;4.90;1.73;;;;;;;25.86;45.22;100529.81;10189541;29;20119;-78
2023/08/13 12:47:45;;;;;;;5.93;1.60;;;;;;;25.43;45.72;100532.38;10182851;29;20052;-79
2023/08/13 12:52:48;;;;;;;3.70;1.60;;;;;;;25.92;45.65;100530.81;10184375;29;20044;-79
2023/08/13 12:57:51;;;;;;;4.22;1.48;;;;;;;24.79;45.12;100528.53;10190451;29;20051;-78
2023/08/13 13:02:55;;;;;;;6.55;1.77;;;;;;;24.60;46.92;100525.63;10181995;29;20040;-78
2023/08/13 13:07:58;;;;;;;5.55;1.65;;;;;;;24.85;47.01;100524.94;10185959;29;20047;-78
2023/08/13 13:13:01;;;;;;;3.13;1.33;;;;;;;24.87;46.42;100515.41;10189902;29;20511;-78
2023/08/13 13:18:06;;;;;;;3.40;1.45;;;;;;;25.46;45.49;100513.53;10189658;29;20384;-78
2023/08/13 13:23:09;;;;;;;7.93;1.48;;;;;;;26.01;44.59;100518.50;10179721;29;20048;-77
2023/08/13 13:28:12;;;;;;;2.80;1.25;;;;;;;26.19;43.63;100515.81;10182681;29;20511;-78
2023/08/13 13:33:16;;;;;;;4.50;1.25;;;;;;;25.72;45.57;100501.53;10187666;29;20052;-78
2023/08/13 13:38:19;;;;;;;4.30;1.48;;;;;;;26.32;44.07;100511.28;10179811;29;20289;-78
2023/08/13 13:43:22;;;;;;;3.92;1.38;;;;;;;25.51;45.33;100505.47;10175786;29;20040;-78
2023/08/13 13:48:26;;;;;;;7.82;1.77;;;;;;;25.71;45.49;100510.88;10190952;29;20051;-79
2023/08/13 13:53:29;;;;;;;4.90;1.60;;;;;;;25.25;45.00;100489.09;10181345;29;20044;-78
2023/08/13 13:58:32;;;;;;;7.60;2.55;;;;;;;25.83;44.44;100484.31;10177604;29;20111;-78
2023/08/13 14:03:36;;;;;;;4.20;1.38;;;;;;;25.99;44.06;100484.84;10183603;29;20048;-77
2023/08/13 14:08:40;;;;;;;4.25;1.27;;;;;;;25.67;45.17;100487.63;10199587;29;20135;-77
2023/08/13 14:13:42;;;;;;;3.00;1.98;;;;;;;25.86;44.52;100480.28;10192562;29;20033;-78
2023/08/13 14:18:47;;;;;;;3.92;1.63;;;;;;;25.18;45.45;100475.41;10185233;29;20050;-79
2023/08/13 14:23:49;;;;;;;4.82;1.55;;;;;;;25.34;45.00;100476.78;10180227;29;20104;-78
2023/08/13 14:28:52;;;;;;;4.85;1.42;;;;;;;25.79;43.88;100465.75;10185407;29;20593;-78
2023/08/13 14:33:56;;;;;;;5.38;1.38;;;;;;;25.72;43.91;100464.94;10178659;29;20504;-79
2023/08/13 14:39:02;;;;;;;5.53;1.95;;;;;;;25.17;45.77;100466.28;10180585;29;20048;-78
2023/08/13 14:44:05;;;;;;;3.22;1.48;;;;;;;25.28;45.47;100464.75;10184513;29;20051;-78
2023/08/13 14:49:10;;;;;;;4.65;2.15;;;;;;;25.12;45.15;100468.00;10187574;29;20047;-78
2023/08/13 14:54:12;;;;;;;5.18;1.73;;;;;;;25.13;45.42;100456.81;10190692;29;20040;-79
2023/08/13 14:59:16;;;;;;;3.58;1.45;;;;;;;25.48;44.79;100455.53;10185865;29;20088;-78
2023/08/13 15:04:20;;;;;;;4.82;1.45;;;;;;;26.37;42.82;100442.63;10192434;29;20118;-79
2023/08/13 15:09:23;;;;;;;5.30;1.65;;;;;;;26.43;41.96;100444.44;10184437;29;20119;-79
2023/08/13 15:14:26;;;;;;;3.97;1.35;;;;;;;26.79;41.67;100448.28;10193369;29;20047;-78
2023/08/13 15:19:31;;;;;;;3.25;1.85;;;;;;;26.16;42.15;100430.91;10170062;29;20060;-78
2023/08/13 15:24:34;;;;;;;3.70;1.65;;;;;;;26.02;43.57;100435.69;10179187;29;20040;-78
2023/08/13 15:29:37;;;;;;;11.27;1.90;;;;;;;25.84;42.82;100428.25;10178413;29;20048;-79
2023/08/13 15:34:41;;;;;;;3.60;1.52;;;;;;;25.75;42.79;100425.97;10177299;29;20135;-78
2023/08/13 15:39:44;;;;;;;3.78;1.60;;;;;;;25.68;42.93;100423.31;10178048;29;20048;-78
2023/08/13 15:44:47;;;;;;;6.07;2.10;;;;;;;26.16;42.41;100419.91;10184531;29;20044;-78
2023/08/13 15:49:51;;;;;;;4.75;1.90;;;;;;;25.73;43.07;100422.63;10177600;29;20128;-78
2023/08/13 15:54:54;;;;;;;6.55;1.90;;;;;;;25.28;43.98;100422.69;10181241;29;20051;-77
2023/08/13 15:59:58;;;;;;;4.65;1.65;;;;;;;24.86;45.04;100435.97;10189645;29;20040;-78
2023/08/13 16:05:03;;;;;;;6.95;1.50;;;;;;;24.63;45.74;100428.22;10177852;29;20040;-79
2023/08/13 16:10:07;;;;;;;6.53;1.75;;;;;;;24.45;46.08;100421.53;10188810;29;20393;-78
2023/08/13 16:15:11;;;;;;;4.38;1.92;;;;;;;24.37;47.47;100413.50;10180609;29;20060;-78
2023/08/13 16:20:16;;;;;;;6.25;2.30;;;;;;;24.53;47.14;100410.31;10180348;29;20574;-79
2023/08/13 16:25:20;;;;;;;4.97;1.42;;;;;;;24.50;47.58;100409.91;10190871;29;20294;-78
2023/08/13 16:30:23;;;;;;;4.30;1.55;;;;;;;24.61;47.36;100408.41;10188132;29;20059;-78
2023/08/13 16:35:27;;;;;;;5.90;1.73;;;;;;;24.80;47.12;100409.38;10186392;29;20040;-78
2023/08/13 16:40:30;;;;;;;5.57;1.60;;;;;;;25.09;46.05;100408.84;10183859;29;20073;-79
2023/08/13 16:45:33;;;;;;;4.03;1.58;;;;;;;24.54;46.64;100401.00;10182539;29;20151;-78
2023/08/13 16:50:37;;;;;;;5.22;1.70;;;;;;;24.35;47.11;100401.88;10192061;29;20467;-78
2023/08/13 16:55:40;;;;;;;6.25;1.70;;;;;;;24.44;47.90;100389.66;10176260;29;20504;-79
2023/08/13 17:00:43;;;;;;;4.03;1.58;;;;;;;24.46;47.75;100384.78;10170459;29;20055;-79
2023/08/13 17:05:47;;;;;;;5.03;1.63;;;;;;;24.25;48.02;100380.38;10172864;29;20534;-77
2023/08/13 17:10:50;;;;;;;7.65;2.05;;;;;;;23.94;48.95;100383.78;10184012;29;20043;-78
2023/08/13 17:15:54;;;;;;;4.15;1.45;;;;;;;24.14;49.37;100380.19;10190591;29;20044;-77
2023/08/13 17:20:58;;;;;;;6.03;1.60;;;;;;;23.75;49.51;100380.00;10191899;29;20060;-79
2023/08/13 17:26:01;;;;;;;4.68;1.70;;;;;;;23.53;50.60;100387.59;10189032;29;20552;-78
2023/08/13 17:31:04;;;;;;;4.25;1.67;;;;;;;23.38;51.14;100389.66;10184430;29;20040;-77
2023/08/13 17:36:08;;;;;;;2.78;1.65;;;;;;;23.41;51.62;100375.53;10182343;29;20072;-78
2023/08/13 17:41:11;;;;;;;4.90;1.60;;;;;;;23.25;52.03;100390.47;10180030;29;20056;-79
2023/08/13 17:46:15;;;;;;;4.68;1.80;;;;;;;22.92;53.65;100391.19;10169899;29;20053;-78
2023/08/13 17:51:20;;;;;;;7.22;1.88;;;;;;;22.88;54.02;100391.84;10177286;29;20088;-77
2023/08/13 17:56:23;;;;;;;3.65;1.80;;;;;;;22.88;54.31;100398.16;10185422;29;20335;-77
2023/08/13 18:01:25;;;;;;;4.80;2.03;;;;;;;22.88;54.23;100400.91;10189219;29;20050;-78
2023/08/13 18:06:30;;;;;;;2.03;1.80;;;;;;;22.90;54.33;100406.16;10183920;29;20048;-77
2023/08/13 18:11:33;;;;;;;7.22;1.80;;;;;;;22.87;53.99;100403.81;10172005;29;20056;-78
2023/08/13 18:16:36;;;;;;;3.40;1.85;;;;;;;22.80;54.01;100409.28;10174120;29;20107;-79
2023/08/13 18:21:40;;;;;;;5.22;2.42;;;;;;;22.65;55.15;100406.66;10179929;29;20063;-77
2023/08/13 18:26:43;;;;;;;5.75;2.38;;;;;;;22.54;56.22;100412.72;10191300;29;20121;-78
2023/08/13 18:31:46;;;;;;;5.40;2.30;;;;;;;22.32;55.76;100412.81;10176004;29;20044;-78
2023/08/13 18:36:50;;;;;;;6.68;2.55;;;;;;;22.18;55.59;100418.38;10190513;29;20036;-78
2023/08/13 18:41:53;;;;;;;4.03;1.90;;;;;;;22.00;56.60;100425.19;10200045;29;20047;-79
2023/08/13 18:46:56;;;;;;;5.22;2.38;;;;;;;21.85;57.27;100425.28;10179116;29;20043;-79
2023/08/13 18:52:00;;;;;;;3.28;1.55;;;;;;;21.69;57.09;100425.53;10186550;29;20772;-77
2023/08/13 18:57:03;;;;;;;8.15;1.80;;;;;;;21.57;57.66;100427.94;10176689;29;20075;-77
2023/08/13 19:02:07;;;;;;;6.10;2.25;;;;;;;21.45;57.69;100429.53;10181572;29;20067;-79
2023/08/13 19:07:11;;;;;;;5.15;1.98;;;;;;;21.31;57.79;100436.72;10173531;29;20048;-78
2023/08/13 19:12:14;;;;;;;3.97;2.05;;;;;;;21.20;57.81;100443.56;10191554;29;20191;-78
2023/08/13 19:17:17;;;;;;;8.95;2.50;;;;;;;21.13;57.95;100445.34;10179992;29;20040;-78
2023/08/13 19:22:22;;;;;;;8.73;2.30;;;;;;;20.97;58.15;100451.84;10177279;29;20086;-78
2023/08/13 19:27:25;;;;;;;6.70;3.00;;;;;;;20.85;57.47;100458.00;10187707;29;20040;-79
2023/08/13 19:32:28;;;;;;;5.95;2.38;;;;;;;20.83;57.68;100449.13;10191492;29;20059;-78
2023/08/13 19:37:33;;;;;;;4.32;2.30;;;;;;;20.81;57.22;100451.19;10205933;29;20048;-76
2023/08/13 19:42:35;;;;;;;5.25;2.33;;;;;;;20.69;57.23;100450.84;10189588;29;20075;-79
2023/08/13 19:47:38;;;;;;;3.85;2.20;;;;;;;20.65;57.02;100453.13;10195056;29;20177;-79
2023/08/13 19:52:43;;;;;;;3.92;2.00;;;;;;;20.59;57.28;100436.63;10188221;29;20052;-79
2023/08/13 19:57:46;;;;;;;6.55;2.20;;;;;;;20.52;57.09;100434.66;10186889;29;20067;-79
2023/08/13 20:02:49;;;;;;;4.10;2.05;;;;;;;20.43;57.65;100429.47;10182185;29;20135;-79
2023/08/13 20:07:53;;;;;;;5.13;1.80;;;;;;;20.32;57.22;100428.06;10192751;29;20587;-79
2023/08/13 20:12:56;;;;;;;7.03;2.28;;;;;;;20.17;56.71;100422.56;10181031;29;20116;-79
2023/08/13 20:17:59;;;;;;;4.72;2.25;;;;;;;20.19;56.06;100439.59;10184857;29;20040;-79
2023/08/13 20:23:04;;;;;;;6.43;1.90;;;;;;;20.20;55.85;100430.38;10181902;29;20071;-79
2023/08/13 20:28:07;;;;;;;3.95;2.28;;;;;;;20.22;56.05;100433.78;10184529;29;20036;-79
2023/08/13 20:33:10;;;;;;;7.20;2.40;;;;;;;20.17;56.30;100432.66;10181143;29;20115;-79
2023/08/13 20:38:14;;;;;;;7.25;2.78;;;;;;;20.00;58.37;100431.97;10177049;29;20040;-79
2023/08/13 20:43:17;;;;;;;5.70;3.13;;;;;;;19.72;60.76;100424.38;10169271;29;20563;-79
2023/08/13 20:48:20;;;;;;;4.55;3.05;;;;;;;19.50;62.86;100433.34;10188955;29;20054;-78
2023/08/13 20:53:25;;;;;;;9.07;3.63;;;;;;;19.18;63.55;100427.13;10169244;29;20508;-78
2023/08/13 20:58:28;;;;;;;8.60;3.00;;;;;;;19.02;63.98;100430.78;10169259;29;20087;-78
2023/08/13 21:03:31;;;;;;;5.43;2.70;;;;;;;18.93;64.50;100429.97;10176401;29;20043;-79
2023/08/13 21:08:35;;;;;;;9.45;3.13;;;;;;;18.87;65.08;100430.69;10178496;29;20048;-79
2023/08/13 21:13:38;;;;;;;8.75;3.10;;;;;;;18.72;65.39;100433.25;10172679;29;20032;-79
2023/08/13 21:18:41;;;;;;;8.18;3.08;;;;;;;18.68;66.00;100440.09;10181275;29;20143;-77
2023/08/13 21:23:45;;;;;;;6.30;2.83;;;;;;;18.66;66.15;100438.56;10178041;29;20131;-79
2023/08/13 21:28:48;;;;;;;4.20;2.95;;;;;;;18.57;66.59;100437.75;10175670;29;20067;-78
2023/08/13 21:33:51;;;;;;;4.15;3.08;;;;;;;18.49;67.04;100432.34;10174947;29;20356;-76
2023/08/13 21:38:56;;;;;;;7.75;2.92;;;;;;;18.48;67.40;100427.91;10175739;29;20141;-77
2023/08/13 21:43:59;;;;;;;5.75;3.13;;;;;;;18.43;67.27;100444.78;10166038;29;20044;-76
2023/08/13 21:49:02;;;;;;;5.90;3.22;;;;;;;18.38;67.64;100439.00;10175058;29;20040;-77
2023/08/13 21:54:06;;;;;;;6.80;3.22;;;;;;;18.31;67.68;100449.72;10176316;29;20460;-77
2023/08/13 21:59:09;;;;;;;10.50;3.47;;;;;;;18.20;67.97;100450.09;10184803;29;20827;-77
2023/08/13 22:04:12;;;;;;;10.18;3.25;;;;;;;17.99;68.72;100452.47;10166741;29;20609;-77
2023/08/13 22:09:16;;;;;;;7.28;3.53;;;;;;;17.92;69.20;100458.56;10171908;29;20048;-77
2023/08/13 22:14:19;;;;;;;7.10;3.80;;;;;;;17.90;69.10;100459.75;10173121;29;20119;-77
2023/08/13 22:19:22;;;;;;;7.35;3.92;;;;;;;17.96;69.15;100467.22;10178437;29;20099;-77
2023/08/13 22:24:26;;;;;;;6.57;2.83;;;;;;;17.96;68.81;100466.38;10171714;29;20088;-78
2023/08/13 22:29:29;;;;;;;6.13;3.47;;;;;;;17.87;68.72;100471.81;10171724;29;20051;-77
2023/08/13 22:34:32;;;;;;;11.98;3.00;;;;;;;17.79;69.03;100476.41;10180400;29;20467;-77
2023/08/13 22:39:36;;;;;;;9.88;3.13;;;;;;;17.80;69.17;100472.66;10172343;29;20071;-77
2023/08/13 22:44:39;;;;;;;11.73;3.97;;;;;;;17.77;69.43;100470.28;10167039;29;20052;-78
2023/08/13 22:49:42;;;;;;;6.20;3.00;;;;;;;17.70;69.50;100473.69;10167330;29;20035;-75
2023/08/13 22:54:47;;;;;;;4.55;3.25;;;;;;;17.72;69.75;100478.09;10176996;29;20047;-77
2023/08/13 22:59:50;;;;;;;5.57;2.67;;;;;;;17.72;69.59;100468.09;10167896;29;20516;-76
2023/08/13 23:04:54;;;;;;;4.35;2.75;;;;;;;17.64;69.84;100465.38;10170674;29;20054;-76
2023/08/13 23:09:59;;;;;;;7.72;2.97;;;;;;;17.63;70.25;100456.34;10172456;29;20164;-76